Jessica S. Settoon — WDD9545 — position and weather

sailwx.info

Track history (hours):
 
Tides and Currents Weather Stations Pressure Air Temp Water Temp Dewpoint Dewpoint Depression Visibility Wind Speed Wind Dir Waves Ship Positions

Jessica S. Settoon

Owner: Settoon Towing LLC, Houma, LA. More information available from US FCC via Universal Licensing System and Coast Guard Vessel Documentation Center.

Last reported at 2018-Jun-22 22:56 UTC. Time now 2018-Jun-24 11:05 UTC.
Position N 29°33' W 090°25'.

Length 17 m; draft 3 m.

Type: Tug. MMSI: 367312940.

Date/timePositionNaut miles runAvg speedWind from/ knotsBaromVisibWave heightAir tempDewpointWater temp
2018-Jun-22 22:56N 29°33' W 090°25'3 7.2
2018-Jun-22 22:30N 29°33' W 090°28'4 7.4
2018-Jun-22 22:00N 29°34' W 090°33'3 6.7
2018-Jun-22 21:30N 29°35' W 090°36'3 6.5
2018-Jun-22 21:00N 29°36' W 090°40'2 5.1
2018-Jun-22 20:30N 29°36' W 090°43'2 3.2
2018-Jun-22 20:00N 29°35' W 090°43'0 0.2
2018-Jun-22 19:31N 29°35' W 090°43'1 2.2
2018-Jun-22 19:01N 29°34' W 090°44'2 3.2
2018-Jun-22 18:29N 29°33' W 090°45'  
2018-Jun-18 23:50N 29°36' W 090°58'3 6.0
2018-Jun-18 23:23N 29°34' W 090°56'3 6.3
2018-Jun-18 22:56N 29°32' W 090°53'3 6.1
2018-Jun-18 22:30N 29°32' W 090°50'3 6.4
2018-Jun-18 22:00N 29°32' W 090°46'3 5.4
2018-Jun-18 21:30N 29°34' W 090°44'2 3.8
2018-Jun-18 21:01N 29°33' W 090°42'3 6.3
2018-Jun-18 20:30N 29°29' W 090°43'3 6.3
2018-Jun-18 20:00N 29°26' W 090°43'4 0.2
2018-Jun-17 23:02N 29°22' W 090°44'0 5.2
2018-Jun-17 23:00N 29°22' W 090°44'3 5.6
2018-Jun-17 22:30N 29°25' W 090°43'3 5.7
2018-Jun-17 22:00N 29°28' W 090°43'3 5.8
2018-Jun-17 21:30N 29°31' W 090°43'3 5.0
2018-Jun-17 21:00N 29°33' W 090°43'1 2.9
2018-Jun-17 20:31N 29°34' W 090°44'3 5.4
2018-Jun-17 20:00N 29°32' W 090°46'  
2018-Jun-14 02:27N 29°51' W 091°55'3 6.5
2018-Jun-14 02:00N 29°50' W 091°58'1 2.5
2018-Jun-14 01:30N 29°50' W 091°59'0 0.0
2018-Jun-14 00:59N 29°50' W 091°59'0 0.0
2018-Jun-14 00:30N 29°50' W 091°59'0 0.0
2018-Jun-13 23:55N 29°50' W 091°59'0 0.0
2018-Jun-13 23:26N 29°50' W 091°59'0 0.0
2018-Jun-13 23:00N 29°50' W 091°59'0 0.0
2018-Jun-13 22:30N 29°50' W 091°59'0 0.0
2018-Jun-13 22:00N 29°50' W 091°59'0 0.0
2018-Jun-13 21:30N 29°50' W 091°59'0 0.0
2018-Jun-13 21:00N 29°50' W 091°59'0 0.0
2018-Jun-13 20:31N 29°50' W 091°59'0 0.0
2018-Jun-13 20:00N 29°50' W 091°59'0 0.0
2018-Jun-13 19:31N 29°50' W 091°59'  
Track history (hours):
 
Tides and Currents Weather Stations Pressure Air Temp Water Temp Dewpoint Dewpoint Depression Visibility Wind Speed Wind Dir Waves Ship Positions

Jessica S. Settoon

Owner: Settoon Towing LLC, Houma, LA. More information available from US FCC via Universal Licensing System and Coast Guard Vessel Documentation Center.

Last reported at 2018-Jun-22 22:56 UTC. Time now 2018-Jun-24 11:05 UTC.
Position N 29°33' W 090°25'.

Length 17 m; draft 3 m.

Type: Tug. MMSI: 367312940.

Date/timePositionNaut miles runAvg speedWind from/ knotsBaromVisibWave heightAir tempDewpointWater temp
2018-Jun-22 22:56N 29°33' W 090°25'3 7.2
2018-Jun-22 22:30N 29°33' W 090°28'4 7.4
2018-Jun-22 22:00N 29°34' W 090°33'3 6.7
2018-Jun-22 21:30N 29°35' W 090°36'3 6.5
2018-Jun-22 21:00N 29°36' W 090°40'2 5.1
2018-Jun-22 20:30N 29°36' W 090°43'2 3.2
2018-Jun-22 20:00N 29°35' W 090°43'0 0.2
2018-Jun-22 19:31N 29°35' W 090°43'1 2.2
2018-Jun-22 19:01N 29°34' W 090°44'2 3.2
2018-Jun-22 18:29N 29°33' W 090°45'  
2018-Jun-18 23:50N 29°36' W 090°58'3 6.0
2018-Jun-18 23:23N 29°34' W 090°56'3 6.3
2018-Jun-18 22:56N 29°32' W 090°53'3 6.1
2018-Jun-18 22:30N 29°32' W 090°50'3 6.4
2018-Jun-18 22:00N 29°32' W 090°46'3 5.4
2018-Jun-18 21:30N 29°34' W 090°44'2 3.8
2018-Jun-18 21:01N 29°33' W 090°42'3 6.3
2018-Jun-18 20:30N 29°29' W 090°43'3 6.3
2018-Jun-18 20:00N 29°26' W 090°43'4 0.2
2018-Jun-17 23:02N 29°22' W 090°44'0 5.2
2018-Jun-17 23:00N 29°22' W 090°44'3 5.6
2018-Jun-17 22:30N 29°25' W 090°43'3 5.7
2018-Jun-17 22:00N 29°28' W 090°43'3 5.8
2018-Jun-17 21:30N 29°31' W 090°43'3 5.0
2018-Jun-17 21:00N 29°33' W 090°43'1 2.9
2018-Jun-17 20:31N 29°34' W 090°44'3 5.4
2018-Jun-17 20:00N 29°32' W 090°46'  
2018-Jun-14 02:27N 29°51' W 091°55'3 6.5
2018-Jun-14 02:00N 29°50' W 091°58'1 2.5
2018-Jun-14 01:30N 29°50' W 091°59'0 0.0
2018-Jun-14 00:59N 29°50' W 091°59'0 0.0
2018-Jun-14 00:30N 29°50' W 091°59'0 0.0
2018-Jun-13 23:55N 29°50' W 091°59'0 0.0
2018-Jun-13 23:26N 29°50' W 091°59'0 0.0
2018-Jun-13 23:00N 29°50' W 091°59'0 0.0
2018-Jun-13 22:30N 29°50' W 091°59'0 0.0
2018-Jun-13 22:00N 29°50' W 091°59'0 0.0
2018-Jun-13 21:30N 29°50' W 091°59'0 0.0
2018-Jun-13 21:00N 29°50' W 091°59'0 0.0
2018-Jun-13 20:31N 29°50' W 091°59'0 0.0
2018-Jun-13 20:00N 29°50' W 091°59'0 0.0
2018-Jun-13 19:31N 29°50' W 091°59'  

Dump ship's entire track history